createdAt,value
2019-03-10T00:00:45.934Z,100445.78
2019-03-10T00:03:12.882Z,100456.69
2019-03-10T00:05:39.821Z,100456.91
2019-03-10T00:08:08.037Z,100454.34
2019-03-10T00:10:35.257Z,100459.91
2019-03-10T00:13:02.235Z,100455.11
2019-03-10T00:15:29.229Z,100450.00
2019-03-10T00:17:56.148Z,100447.03
2019-03-10T00:20:23.168Z,100441.25
2019-03-10T00:22:50.117Z,100443.05
2019-03-10T00:25:17.075Z,100444.61
2019-03-10T00:27:44.146Z,100439.95
2019-03-10T00:30:11.219Z,100440.95
2019-03-10T00:32:38.167Z,100434.84
2019-03-10T00:35:05.272Z,100443.71
2019-03-10T00:37:32.303Z,100445.51
2019-03-10T00:40:37.242Z,100442.70
2019-03-10T00:43:40.286Z,100439.59
2019-03-10T00:46:45.811Z,100436.45
2019-03-10T00:49:48.483Z,100432.64
2019-03-10T00:52:21.876Z,100434.94
2019-03-10T00:54:48.823Z,100432.88
2019-03-10T00:57:15.826Z,100424.62
2019-03-10T00:59:42.769Z,100424.75
2019-03-10T01:02:09.718Z,100422.96
2019-03-10T01:04:36.645Z,100418.70
2019-03-10T01:07:03.698Z,100417.58
2019-03-10T01:09:30.613Z,100413.86
2019-03-10T01:11:57.672Z,100403.09
2019-03-10T01:14:24.641Z,100395.39
2019-03-10T01:16:51.582Z,100401.25
2019-03-10T01:19:18.956Z,100394.35
2019-03-10T01:21:47.933Z,100386.09
2019-03-10T01:24:14.910Z,100382.34
2019-03-10T01:26:42.062Z,100377.23
2019-03-10T01:29:08.974Z,100374.53
2019-03-10T01:31:56.705Z,100363.81
2019-03-10T01:34:40.256Z,100364.72
2019-03-10T01:37:07.201Z,100358.63
2019-03-10T01:39:34.132Z,100366.33
2019-03-10T01:42:01.154Z,100350.47
2019-03-10T01:44:28.521Z,100343.33
2019-03-10T01:46:55.485Z,100341.47
2019-03-10T01:49:22.438Z,100341.32
2019-03-10T01:51:49.408Z,100332.72
2019-03-10T01:54:16.387Z,100323.51
2019-03-10T01:56:43.505Z,100330.75
2019-03-10T01:59:10.435Z,100321.06
2019-03-10T02:01:37.398Z,100319.11
2019-03-10T02:04:04.395Z,100322.52
2019-03-10T02:06:31.360Z,100317.11
2019-03-10T02:11:35.588Z,100288.66
2019-03-10T02:14:02.553Z,100289.30
2019-03-10T02:16:30.434Z,100293.80
2019-03-10T02:18:57.507Z,100286.95
2019-03-10T02:21:24.430Z,100286.15
2019-03-10T02:23:51.416Z,100283.26
2019-03-10T02:26:18.323Z,100272.86
2019-03-10T02:28:45.288Z,100264.89
2019-03-10T02:31:12.214Z,100253.19
2019-03-10T02:33:39.765Z,100247.89
2019-03-10T02:36:06.686Z,100218.06
2019-03-10T02:38:33.698Z,100239.89
2019-03-10T02:41:00.642Z,100225.59
2019-03-10T02:43:27.600Z,100228.48
2019-03-10T02:45:54.504Z,100220.68
2019-03-10T02:48:21.493Z,100221.88
2019-03-10T02:50:48.434Z,100213.57
2019-03-10T02:53:15.412Z,100211.13
2019-03-10T02:55:42.374Z,100209.78
2019-03-10T02:58:09.334Z,100192.03
2019-03-10T03:00:36.301Z,100194.45
2019-03-10T03:03:03.295Z,100195.81
2019-03-10T03:05:30.296Z,100195.36
2019-03-10T03:07:57.287Z,100185.80
2019-03-10T03:10:24.276Z,100180.66
2019-03-10T03:12:51.342Z,100172.89
2019-03-10T03:15:18.340Z,100167.47
2019-03-10T03:17:45.370Z,100162.28
2019-03-10T03:20:12.614Z,100157.12
2019-03-10T03:22:39.580Z,100157.80
2019-03-10T03:25:06.968Z,100152.50
2019-03-10T03:27:33.930Z,100143.34
2019-03-10T03:30:00.902Z,100140.62
2019-03-10T03:32:27.835Z,100141.53
2019-03-10T03:34:54.784Z,100140.02
2019-03-10T03:37:22.496Z,100135.92
2019-03-10T03:39:51.244Z,100135.92
2019-03-10T03:42:18.192Z,100138.52
2019-03-10T03:44:45.122Z,100125.62
2019-03-10T03:47:12.163Z,100137.42
2019-03-10T03:49:39.168Z,100124.32
2019-03-10T03:52:06.079Z,100122.61
2019-03-10T03:54:32.994Z,100117.70
2019-03-10T03:56:59.916Z,100103.10
2019-03-10T03:59:26.867Z,100100.02
2019-03-10T04:01:57.764Z,100099.06
2019-03-10T04:04:24.754Z,100086.70
2019-03-10T04:06:51.676Z,100081.49
2019-03-10T04:09:18.633Z,100072.52
2019-03-10T04:11:45.622Z,100066.48
2019-03-10T04:14:12.540Z,100063.27
2019-03-10T04:16:39.765Z,100060.04
2019-03-10T04:19:06.719Z,100052.16
2019-03-10T04:21:33.659Z,100053.52
2019-03-10T04:24:00.593Z,100051.89
2019-03-10T04:26:28.571Z,100043.96
2019-03-10T04:28:55.510Z,100024.94
2019-03-10T04:31:22.445Z,100029.86
2019-03-10T04:33:49.429Z,100029.64
2019-03-10T04:36:16.356Z,100030.02
2019-03-10T04:38:43.288Z,100025.89
2019-03-10T04:41:10.274Z,100023.98
2019-03-10T04:43:37.184Z,100018.98
2019-03-10T04:46:04.217Z,100008.52
2019-03-10T04:48:31.132Z,100016.00
2019-03-10T04:50:58.126Z,100000.30
2019-03-10T04:53:25.110Z,99998.31
2019-03-10T04:56:00.129Z,99990.65
2019-03-10T04:58:27.072Z,99987.73
2019-03-10T05:00:55.654Z,99976.67
2019-03-10T05:03:22.595Z,99970.22
2019-03-10T05:05:49.544Z,99965.88
2019-03-10T05:08:16.479Z,99967.19
2019-03-10T05:10:43.588Z,99953.52
2019-03-10T05:13:10.544Z,99953.83
2019-03-10T05:15:37.532Z,99951.10
2019-03-10T05:18:04.472Z,99941.04
2019-03-10T05:20:31.426Z,99936.10
2019-03-10T05:23:29.825Z,99936.48
2019-03-10T05:25:56.851Z,99938.48
2019-03-10T05:28:23.788Z,99935.78
2019-03-10T05:30:50.822Z,99925.03
2019-03-10T05:33:17.739Z,99926.27
2019-03-10T05:35:44.713Z,99918.31
2019-03-10T05:38:11.658Z,99909.58
2019-03-10T05:40:38.650Z,99899.30
2019-03-10T05:43:05.552Z,99884.52
2019-03-10T05:45:32.527Z,99883.19
2019-03-10T05:47:59.445Z,99870.11
2019-03-10T05:50:26.398Z,99875.08
2019-03-10T05:52:53.334Z,99869.42
2019-03-10T05:55:20.294Z,99867.73
2019-03-10T05:57:47.197Z,99862.88
2019-03-10T06:00:14.145Z,99856.45
2019-03-10T06:02:41.084Z,99847.41
2019-03-10T06:05:08.078Z,99852.40
2019-03-10T06:07:34.998Z,99842.81
2019-03-10T06:10:01.955Z,99838.90
2019-03-10T06:12:28.923Z,99830.16
2019-03-10T06:14:55.858Z,99824.16
2019-03-10T06:17:22.814Z,99817.10
2019-03-10T06:19:49.765Z,99812.04
2019-03-10T06:22:16.737Z,99801.52
2019-03-10T06:24:43.683Z,99795.27
2019-03-10T06:27:10.660Z,99789.56
2019-03-10T06:29:37.583Z,99783.91
2019-03-10T06:32:04.516Z,99777.15
2019-03-10T06:34:31.483Z,99774.95
2019-03-10T06:36:58.426Z,99764.56
2019-03-10T06:39:25.372Z,99767.48
2019-03-10T06:41:52.332Z,99756.74
2019-03-10T06:44:20.948Z,99748.34
2019-03-10T06:46:48.123Z,99743.52
2019-03-10T06:49:15.048Z,99742.41
2019-03-10T06:51:42.045Z,99741.97
2019-03-10T06:54:08.968Z,99731.20
2019-03-10T06:56:35.908Z,99730.87
2019-03-10T06:59:02.832Z,99718.13
2019-03-10T07:01:29.812Z,99706.58
2019-03-10T07:03:56.763Z,99704.78
2019-03-10T07:06:23.734Z,99696.50
2019-03-10T07:08:50.659Z,99678.79
2019-03-10T07:11:17.673Z,99676.07
2019-03-10T07:13:44.600Z,99672.52
2019-03-10T07:16:11.506Z,99675.18
2019-03-10T07:18:38.484Z,99673.52
2019-03-10T07:21:05.400Z,99664.80
2019-03-10T07:23:32.477Z,99661.59
2019-03-10T07:26:05.772Z,99657.24
2019-03-10T07:28:39.392Z,99645.89
2019-03-10T07:31:31.596Z,99636.53
2019-03-10T07:34:27.149Z,99639.20
2019-03-10T07:37:07.790Z,99634.18
2019-03-10T07:40:03.377Z,99621.48
2019-03-10T07:42:48.593Z,99611.79
2019-03-10T07:45:27.598Z,99605.92
2019-03-10T07:48:14.179Z,99615.05
2019-03-10T07:50:50.508Z,99599.91
2019-03-10T07:53:37.352Z,99590.56
2019-03-10T07:56:35.845Z,99597.69
2019-03-10T07:59:28.362Z,99583.59
2019-03-10T08:02:13.232Z,99585.20
2019-03-10T08:04:57.376Z,99578.20
2019-03-10T08:07:44.049Z,99562.83
2019-03-10T08:10:30.980Z,99560.98
2019-03-10T08:13:12.809Z,99551.16
2019-03-10T08:15:56.289Z,99537.88
2019-03-10T08:18:30.217Z,99533.02
2019-03-10T08:21:25.513Z,99526.75
2019-03-10T08:24:24.160Z,99526.77
2019-03-10T08:27:09.476Z,99514.92
2019-03-10T08:29:42.693Z,99506.84
2019-03-10T08:32:25.996Z,99501.03
2019-03-10T08:35:12.603Z,99510.66
2019-03-10T08:38:07.960Z,99497.84
2019-03-10T08:41:00.580Z,99499.39
2019-03-10T08:43:46.220Z,99490.41
2019-03-10T08:46:24.042Z,99485.13
2019-03-10T08:49:25.474Z,99480.47
2019-03-10T08:52:14.490Z,99463.19
2019-03-10T08:54:59.835Z,99449.23
2019-03-10T08:57:44.787Z,99452.16
2019-03-10T09:00:30.406Z,99446.96
2019-03-10T09:03:28.925Z,99432.48
2019-03-10T09:06:08.040Z,99422.95
2019-03-10T09:09:03.465Z,99414.10
2019-03-10T09:11:49.111Z,99404.74
2019-03-10T09:14:38.715Z,99397.04
2019-03-10T09:17:25.252Z,99385.66
2019-03-10T09:20:03.946Z,99377.47
2019-03-10T09:22:50.489Z,99381.48
2019-03-10T09:25:37.053Z,99373.09
2019-03-10T09:28:13.282Z,99363.66
2019-03-10T09:31:11.811Z,99347.80
2019-03-10T09:33:46.753Z,99341.40
2019-03-10T09:36:41.319Z,99345.14
2019-03-10T09:39:26.306Z,99337.13
2019-03-10T09:42:15.452Z,99335.51
2019-03-10T09:44:57.047Z,99322.52
2019-03-10T09:47:34.713Z,99320.63
2019-03-10T09:50:24.323Z,99320.66
2019-03-10T09:53:16.680Z,99314.78
2019-03-10T09:55:54.194Z,99306.14
2019-03-10T09:58:37.440Z,99304.38
2019-03-10T10:01:16.620Z,99297.69
2019-03-10T10:04:18.709Z,99284.80
2019-03-10T10:06:59.674Z,99279.73
2019-03-10T10:09:46.232Z,99269.67
2019-03-10T10:12:33.271Z,99258.27
2019-03-10T10:15:06.986Z,99262.92
2019-03-10T10:17:56.833Z,99255.23
2019-03-10T10:20:46.242Z,99250.59
2019-03-10T10:23:32.792Z,99236.64
2019-03-10T10:26:17.758Z,99220.88
2019-03-10T10:28:56.159Z,99217.81
2019-03-10T10:31:48.532Z,99223.10
2019-03-10T10:34:27.306Z,99222.36
2019-03-10T10:37:12.533Z,99198.42
2019-03-10T10:39:50.474Z,99173.90
2019-03-10T10:42:31.437Z,99169.48
2019-03-10T10:45:26.702Z,99205.67
2019-03-10T10:48:11.788Z,99203.97
2019-03-10T10:50:58.849Z,99188.58
2019-03-10T10:53:48.327Z,99178.19
2019-03-10T10:56:34.908Z,99163.53
2019-03-10T10:59:19.870Z,99179.88
2019-03-10T11:02:01.271Z,99173.20
2019-03-10T11:04:43.692Z,99165.72
2019-03-10T11:07:17.139Z,99170.39
2019-03-10T11:10:06.472Z,99161.99
2019-03-10T11:12:58.854Z,99158.12
2019-03-10T11:15:42.645Z,99147.59
2019-03-10T11:18:31.407Z,99140.57
2019-03-10T11:21:17.964Z,99132.21
2019-03-10T11:23:57.006Z,99124.24
2019-03-10T11:26:43.034Z,99122.31
2019-03-10T11:29:29.576Z,99124.35
2019-03-10T11:32:16.157Z,99123.11
2019-03-10T11:35:20.795Z,99104.20
2019-03-10T11:38:07.387Z,99100.51
2019-03-10T11:40:59.963Z,99096.85
2019-03-10T11:43:38.240Z,99097.58
2019-03-10T11:46:21.357Z,99091.60
2019-03-10T11:49:10.423Z,99079.31
2019-03-10T11:51:53.502Z,99075.42
2019-03-10T11:54:36.839Z,99075.19
2019-03-10T11:57:11.932Z,99073.25
2019-03-10T11:59:46.504Z,99071.52
2019-03-10T12:02:25.484Z,99062.69
2019-03-10T12:05:18.157Z,99051.22
2019-03-10T12:08:03.430Z,99054.00
2019-03-10T12:10:30.393Z,99048.87
2019-03-10T12:12:57.320Z,99035.66
2019-03-10T12:15:24.264Z,99022.05
2019-03-10T12:17:51.223Z,99013.67
2019-03-10T12:20:18.160Z,99006.30
2019-03-10T12:22:45.114Z,98998.03
2019-03-10T12:25:12.322Z,98998.15
2019-03-10T12:27:39.293Z,98988.33
2019-03-10T12:30:06.780Z,98979.08
2019-03-10T12:32:33.755Z,98973.19
2019-03-10T12:35:00.658Z,98967.44
2019-03-10T12:37:27.642Z,98965.88
2019-03-10T12:39:54.576Z,98966.76
2019-03-10T12:42:21.554Z,98956.23
2019-03-10T12:44:48.470Z,98956.63
2019-03-10T12:47:15.435Z,98956.66
2019-03-10T12:49:42.352Z,98952.36
2019-03-10T12:52:09.289Z,98951.02
2019-03-10T12:54:36.201Z,98930.55
2019-03-10T12:57:03.135Z,98928.13
2019-03-10T12:59:30.048Z,98924.44
2019-03-10T13:01:56.957Z,98914.82
2019-03-10T13:04:23.964Z,98915.33
2019-03-10T13:06:50.881Z,98906.22
2019-03-10T13:09:18.122Z,98900.89
2019-03-10T13:11:45.052Z,98888.34
2019-03-10T13:14:12.003Z,98914.14
2019-03-10T13:16:38.932Z,98925.36
2019-03-10T13:19:05.876Z,98913.52
2019-03-10T13:21:32.824Z,98907.64
2019-03-10T13:23:59.838Z,98910.32
2019-03-10T13:26:26.760Z,98898.42
2019-03-10T13:28:53.819Z,98892.96
2019-03-10T13:31:20.879Z,98882.16
2019-03-10T13:33:47.907Z,98890.53
2019-03-10T13:36:14.848Z,98897.91
2019-03-10T13:38:42.604Z,98891.20
2019-03-10T13:41:09.563Z,98875.08
2019-03-10T13:43:36.490Z,98860.06
2019-03-10T13:46:03.474Z,98870.02
2019-03-10T13:48:30.427Z,98856.67
2019-03-10T13:50:57.352Z,98850.24
2019-03-10T13:53:24.302Z,98841.23
2019-03-10T13:55:51.243Z,98827.50
2019-03-10T13:58:18.192Z,98822.73
2019-03-10T14:00:45.139Z,98803.28
2019-03-10T14:03:12.094Z,98805.74
2019-03-10T14:05:39.037Z,98806.76
2019-03-10T14:08:05.969Z,98804.94
2019-03-10T14:10:32.891Z,98805.73
2019-03-10T14:12:59.870Z,98784.98
2019-03-10T14:15:26.796Z,98795.64
2019-03-10T14:17:53.684Z,98789.95
2019-03-10T14:20:20.730Z,98783.40
2019-03-10T14:22:47.677Z,98771.19
2019-03-10T14:25:14.852Z,98780.53
2019-03-10T14:27:41.856Z,98773.75
2019-03-10T14:30:08.981Z,98792.34
2019-03-10T14:32:35.905Z,98763.00
2019-03-10T14:35:03.054Z,98805.86
2019-03-10T14:37:29.959Z,98807.00
2019-03-10T14:39:56.916Z,98816.86
2019-03-10T14:42:24.699Z,98806.54
2019-03-10T14:44:51.655Z,98833.48
2019-03-10T14:47:19.588Z,98807.94
2019-03-10T14:49:46.691Z,98859.59
2019-03-10T14:52:13.618Z,98857.03
2019-03-10T14:54:40.580Z,98872.14
2019-03-10T14:57:07.542Z,98904.66
2019-03-10T14:59:34.497Z,98884.33
2019-03-10T15:02:01.554Z,98920.88
2019-03-10T15:04:28.490Z,98912.28
2019-03-10T15:06:55.714Z,98925.86
2019-03-10T15:09:23.570Z,98921.14
2019-03-10T15:11:50.493Z,98931.87
2019-03-10T15:14:17.449Z,98934.48
2019-03-10T15:16:44.362Z,98934.85
2019-03-10T15:19:12.198Z,98940.20
2019-03-10T15:21:39.363Z,98948.69
2019-03-10T15:24:06.339Z,98955.02
2019-03-10T15:26:33.363Z,98956.73
2019-03-10T15:29:00.322Z,98950.70
2019-03-10T15:31:27.572Z,98954.80
2019-03-10T15:33:54.491Z,98936.70
2019-03-10T15:36:21.593Z,98928.78
2019-03-10T15:38:48.498Z,98938.28
2019-03-10T15:41:15.589Z,98937.88
2019-03-10T15:43:42.507Z,98939.31
2019-03-10T15:46:09.626Z,98927.53
2019-03-10T15:48:36.654Z,98937.16
2019-03-10T15:51:03.730Z,98940.64
2019-03-10T15:53:30.671Z,98953.66
2019-03-10T15:55:57.709Z,98939.06
2019-03-10T15:58:24.640Z,98946.49
2019-03-10T16:00:51.622Z,98926.45
2019-03-10T16:03:18.574Z,98951.68
2019-03-10T16:05:45.615Z,98907.97
2019-03-10T16:08:12.492Z,98938.52
2019-03-10T16:10:39.454Z,98945.17
2019-03-10T16:13:11.535Z,98969.16
2019-03-10T16:15:38.583Z,98951.95
2019-03-10T16:18:05.529Z,98967.05
2019-03-10T16:20:32.672Z,98974.94
2019-03-10T16:22:59.655Z,99014.16
2019-03-10T16:25:26.678Z,99017.84
2019-03-10T16:27:53.603Z,99008.16
2019-03-10T16:30:20.609Z,99023.14
2019-03-10T16:32:47.555Z,99087.95
2019-03-10T16:35:14.975Z,99113.66
2019-03-10T16:37:41.937Z,99168.05
2019-03-10T16:40:10.888Z,99209.77
2019-03-10T16:42:37.844Z,99242.33
2019-03-10T16:45:06.360Z,99273.57
2019-03-10T16:47:33.323Z,99319.98
2019-03-10T16:50:00.365Z,99357.45
2019-03-10T16:52:27.488Z,99410.89
2019-03-10T16:54:54.401Z,99443.85
2019-03-10T16:57:21.348Z,99468.00
2019-03-10T16:59:48.431Z,99500.43
2019-03-10T17:02:15.365Z,99527.39
2019-03-10T17:04:42.272Z,99566.73
2019-03-10T17:07:09.244Z,99608.84
2019-03-10T17:09:36.159Z,99623.95
2019-03-10T17:12:03.172Z,99660.59
2019-03-10T17:14:30.134Z,99683.77
2019-03-10T17:16:57.087Z,99698.11
2019-03-10T17:19:24.013Z,99733.61
2019-03-10T17:21:50.938Z,99768.96
2019-03-10T17:24:17.989Z,99780.72
2019-03-10T17:26:44.931Z,99819.95
2019-03-10T17:29:11.842Z,99803.62
2019-03-10T17:31:38.840Z,99832.43
2019-03-10T17:34:06.080Z,99861.72
2019-03-10T17:36:33.356Z,99891.48
2019-03-10T17:39:00.283Z,99891.92
2019-03-10T17:41:27.450Z,99898.00
2019-03-10T17:43:54.403Z,99925.11
2019-03-10T17:46:21.421Z,99933.75
2019-03-10T17:48:48.360Z,99941.88
2019-03-10T17:51:15.309Z,99952.66
2019-03-10T17:53:42.231Z,99962.17
2019-03-10T17:56:09.177Z,99983.22
2019-03-10T17:58:36.141Z,99983.70
2019-03-10T18:01:03.069Z,99993.59
2019-03-10T18:03:29.969Z,100007.35
2019-03-10T18:05:56.896Z,100014.63
2019-03-10T18:08:23.943Z,100027.09
2019-03-10T18:10:50.846Z,100037.37
2019-03-10T18:13:17.793Z,100036.13
2019-03-10T18:15:44.706Z,100044.28
2019-03-10T18:18:11.929Z,100050.73
2019-03-10T18:20:38.837Z,100067.94
2019-03-10T18:23:05.781Z,100069.67
2019-03-10T18:25:32.704Z,100081.70
2019-03-10T18:27:59.743Z,100089.84
2019-03-10T18:30:26.761Z,100092.00
2019-03-10T18:32:53.724Z,100096.72
2019-03-10T18:35:20.657Z,100097.14
2019-03-10T18:37:47.596Z,100101.87
2019-03-10T18:40:16.498Z,100096.72
2019-03-10T18:42:43.455Z,100107.04
2019-03-10T18:45:12.727Z,100108.34
2019-03-10T18:47:39.710Z,100115.22
2019-03-10T18:50:08.185Z,100116.50
2019-03-10T18:52:35.183Z,100125.94
2019-03-10T18:55:02.081Z,100123.78
2019-03-10T18:57:29.097Z,100136.67
2019-03-10T18:59:55.999Z,100134.52
2019-03-10T19:02:22.909Z,100131.52
2019-03-10T19:04:52.706Z,100136.69
2019-03-10T19:07:19.655Z,100137.52
2019-03-10T19:09:46.563Z,100132.36
2019-03-10T19:12:13.634Z,100142.68
2019-03-10T19:14:40.585Z,100145.26
2019-03-10T19:17:07.527Z,100154.73
2019-03-10T19:19:34.446Z,100159.88
2019-03-10T19:22:01.681Z,100165.05
2019-03-10T19:24:28.570Z,100170.63
2019-03-10T19:26:55.485Z,100177.06
2019-03-10T19:29:22.489Z,100176.20
2019-03-10T19:31:49.476Z,100182.19
2019-03-10T19:34:16.409Z,100193.37
2019-03-10T19:36:43.331Z,100200.28
2019-03-10T19:39:10.269Z,100212.31
2019-03-10T19:41:37.212Z,100212.34
2019-03-10T19:44:04.165Z,100228.23
2019-03-10T19:46:31.103Z,100229.11
2019-03-10T19:48:58.058Z,100218.80
2019-03-10T19:51:24.984Z,100226.95
2019-03-10T19:53:51.926Z,100221.38
2019-03-10T19:56:18.837Z,100223.09
2019-03-10T19:58:45.776Z,100210.62
2019-03-10T20:01:12.717Z,100211.46
2019-03-10T20:03:39.666Z,100215.73
2019-03-10T20:06:06.570Z,100213.19
2019-03-10T20:08:33.700Z,100226.09
2019-03-10T20:11:00.612Z,100233.38
2019-03-10T20:13:27.590Z,100238.09
2019-03-10T20:15:54.503Z,100232.97
2019-03-10T20:18:21.465Z,100232.98
2019-03-10T20:20:48.417Z,100251.91
2019-03-10T20:23:15.336Z,100254.05
2019-03-10T20:25:42.494Z,100276.83
2019-03-10T20:28:09.602Z,100282.41
2019-03-10T20:30:36.601Z,100267.78
2019-03-10T20:33:03.560Z,100256.95
2019-03-10T20:35:30.500Z,100258.28
2019-03-10T20:37:57.436Z,100283.66
2019-03-10T20:40:24.549Z,100289.27
2019-03-10T20:42:51.862Z,100295.31
2019-03-10T20:45:18.806Z,100306.05
2019-03-10T20:47:45.715Z,100299.14
2019-03-10T20:50:13.153Z,100298.31
2019-03-10T20:52:40.099Z,100282.33
2019-03-10T20:55:07.537Z,100286.67
2019-03-10T20:57:34.456Z,100290.98
2019-03-10T21:00:01.428Z,100287.98
2019-03-10T21:02:28.370Z,100283.70
2019-03-10T21:04:55.509Z,100295.33
2019-03-10T21:07:22.468Z,100297.08
2019-03-10T21:09:49.445Z,100300.92
2019-03-10T21:12:16.365Z,100300.91
2019-03-10T21:14:43.348Z,100321.59
2019-03-10T21:17:10.255Z,100319.86
2019-03-10T21:19:37.219Z,100320.29
2019-03-10T21:22:04.137Z,100337.09
2019-03-10T21:24:31.194Z,100327.14
2019-03-10T21:26:58.114Z,100329.73
2019-03-10T21:29:25.063Z,100321.12
2019-03-10T21:31:52.006Z,100331.84
2019-03-10T21:34:18.971Z,100334.05
2019-03-10T21:36:45.954Z,100331.87
2019-03-10T21:39:12.863Z,100334.08
2019-03-10T21:41:39.978Z,100330.17
2019-03-10T21:44:06.897Z,100335.34
2019-03-10T21:46:33.912Z,100339.21
2019-03-10T21:49:00.868Z,100350.42
2019-03-10T21:51:27.849Z,100361.18
2019-03-10T21:53:54.756Z,100353.88
2019-03-10T21:56:21.704Z,100350.42
2019-03-10T21:58:49.773Z,100359.48
2019-03-10T22:01:16.713Z,100354.73
2019-03-10T22:03:43.645Z,100362.92
2019-03-10T22:06:10.601Z,100357.30
2019-03-10T22:08:37.546Z,100352.55
2019-03-10T22:11:04.523Z,100357.30
2019-03-10T22:13:31.437Z,100371.55
2019-03-10T22:15:58.384Z,100365.10
2019-03-10T22:18:25.306Z,100374.56
2019-03-10T22:20:52.263Z,100384.02
2019-03-10T22:23:19.207Z,100390.92
2019-03-10T22:25:46.159Z,100402.54
2019-03-10T22:28:13.076Z,100407.30
2019-03-10T22:30:40.016Z,100362.09
2019-03-10T22:33:06.936Z,100399.95
2019-03-10T22:35:33.888Z,100404.25
2019-03-10T22:38:00.803Z,100385.31
2019-03-10T22:40:28.239Z,100393.48
2019-03-10T22:42:55.188Z,100394.34
2019-03-10T22:45:22.396Z,100358.64
2019-03-10T22:47:49.343Z,100395.20
2019-03-10T22:50:16.505Z,100399.52
2019-03-10T22:52:43.469Z,100385.31
2019-03-10T22:55:10.805Z,100393.51
2019-03-10T22:57:37.742Z,100383.14
2019-03-10T23:00:09.251Z,100390.91
2019-03-10T23:02:36.189Z,100402.54
2019-03-10T23:05:03.137Z,100400.84
2019-03-10T23:07:30.075Z,100404.25
2019-03-10T23:09:56.998Z,100412.88
2019-03-10T23:12:23.930Z,100398.67
2019-03-10T23:14:50.833Z,100391.34
2019-03-10T23:17:17.800Z,100377.09
2019-03-10T23:19:44.708Z,100378.85
2019-03-10T23:22:11.637Z,100377.13
2019-03-10T23:24:40.166Z,100386.61
2019-03-10T23:27:08.901Z,100390.53
2019-03-10T23:29:37.181Z,100393.08
2019-03-10T23:32:04.243Z,100390.53
2019-03-10T23:34:31.151Z,100381.90
2019-03-10T23:36:58.189Z,100374.98
2019-03-10T23:39:25.178Z,100377.59
2019-03-10T23:41:52.298Z,100370.28
2019-03-10T23:44:19.411Z,100371.14
2019-03-10T23:46:46.349Z,100367.69
2019-03-10T23:49:13.260Z,100363.41
2019-03-10T23:51:40.208Z,100362.09
2019-03-10T23:54:07.153Z,100367.25
2019-03-10T23:56:34.100Z,100353.05
2019-03-10T23:59:01.020Z,100351.33
